Time;durP1;ratioP1;P1;durP2;ratioP2;P2;SDS_P1;SDS_P2;PMS_P1;PMS_P2;Temp;Humidity;BMP_temperature;BMP_pressure;BME280_temperature;BME280_humidity;BME280_pressure;Samples;Min_cycle;Max_cycle;Signal;HPM_P1;HPM_P2
2023/09/20 00:02:18;;;;;;;;;;;;;;;12.67;66.72;98931.84;109332;1286;87138;-58
2023/09/20 00:04:47;;;;;;;;;;;;;;;12.69;66.70;98933.45;109449;1285;22425;-58
2023/09/20 00:07:16;;;;;;;;;;;;;;;12.71;66.78;98931.37;109205;1287;22454;-58
2023/09/20 00:09:44;;;;;;;;;;;;;;;12.73;66.75;98932.11;109236;1286;86681;-58
2023/09/20 00:12:12;;;;;;;;;;;;;;;12.73;66.76;98931.77;109416;1285;22489;-58
2023/09/20 00:14:41;;;;;;;;;;;;;;;12.72;66.78;98927.46;109360;1285;86402;-58
2023/09/20 00:17:09;;;;;;;;;;;;;;;12.74;66.91;98931.73;109399;1286;22404;-58
2023/09/20 00:19:40;;;;;;;;;;;;;;;12.74;66.99;98927.71;109171;1286;23155;-58
2023/09/20 00:22:10;;;;;;;;;;;;;;;12.75;66.96;98929.85;109365;1285;86094;-58
2023/09/20 00:24:39;;;;;;;;;;;;;;;12.75;67.04;98928.46;109396;1285;22446;-58
2023/09/20 00:27:08;;;;;;;;;;;;;;;12.73;67.11;98928.26;109384;1285;86999;-58
2023/09/20 00:29:37;;;;;;;;;;;;;;;12.72;67.12;98929.40;109217;1286;23093;-58
2023/09/20 00:32:07;;;;;;;;;;;;;;;12.71;67.17;98935.20;109362;1285;88145;-57
2023/09/20 00:34:35;;;;;;;;;;;;;;;12.69;67.24;98929.59;109402;1285;23493;-58
2023/09/20 00:37:04;;;;;;;;;;;;;;;12.68;67.23;98934.39;109419;1285;22540;-58
2023/09/20 00:39:32;;;;;;;;;;;;;;;12.67;67.23;98928.35;109353;1286;86580;-58
2023/09/20 00:42:01;;;;;;;;;;;;;;;12.65;67.34;98934.23;109413;1285;22463;-58
2023/09/20 00:44:29;;;;;;;;;;;;;;;12.64;67.41;98929.94;109351;1284;86739;-57
2023/09/20 00:46:58;;;;;;;;;;;;;;;12.65;67.49;98929.70;109410;1285;22423;-58
2023/09/20 00:49:27;;;;;;;;;;;;;;;12.67;67.50;98928.36;109435;1285;22407;-58
2023/09/20 00:51:55;;;;;;;;;;;;;;;12.69;67.49;98927.52;109374;1286;87012;-58
2023/09/20 00:54:23;;;;;;;;;;;;;;;12.71;67.49;98928.04;109309;1285;23717;-58
2023/09/20 00:56:52;;;;;;;;;;;;;;;12.69;67.51;98929.27;109341;1285;86757;-58
2023/09/20 00:59:21;;;;;;;;;;;;;;;12.65;67.50;98925.16;109184;1286;22413;-58
2023/09/20 01:01:50;;;;;;;;;;;;;;;12.62;67.60;98929.77;109166;1280;22451;-58
2023/09/20 01:04:18;;;;;;;;;;;;;;;12.61;67.72;98928.59;109418;1282;22463;-59
2023/09/20 01:06:50;;;;;;;;;;;;;;;12.62;67.68;98926.76;109407;1285;22837;-58
2023/09/20 01:09:18;;;;;;;;;;;;;;;12.67;67.88;98928.70;109318;1285;86641;-59
2023/09/20 01:11:47;;;;;;;;;;;;;;;12.67;67.75;98928.34;109192;1286;23149;-58
2023/09/20 01:14:15;;;;;;;;;;;;;;;12.66;67.78;98929.11;109321;1286;87208;-58
2023/09/20 01:16:43;;;;;;;;;;;;;;;12.69;67.90;98928.23;109403;1285;23216;-58
2023/09/20 01:19:12;;;;;;;;;;;;;;;12.70;67.94;98926.94;109414;1285;23242;-58
2023/09/20 01:21:42;;;;;;;;;;;;;;;12.71;67.91;98930.16;109346;1285;86445;-58
2023/09/20 01:24:11;;;;;;;;;;;;;;;12.70;67.90;98925.34;109406;1285;22456;-58
2023/09/20 01:26:39;;;;;;;;;;;;;;;12.69;67.95;98924.23;109359;1285;87773;-58
2023/09/20 01:29:07;;;;;;;;;;;;;;;12.69;67.95;98923.19;109424;1286;22415;-58
2023/09/20 01:31:36;;;;;;;;;;;;;;;12.66;67.95;98924.95;109368;1286;23304;-58
2023/09/20 01:34:10;;;;;;;;;;;;;;;12.66;68.11;98925.60;109338;1285;84883;-58
2023/09/20 01:36:52;;;;;;;;;;;;;;;12.69;68.21;98924.02;109402;1285;22439;-58
2023/09/20 01:39:20;;;;;;;;;;;;;;;12.71;68.19;98925.26;109333;1285;86490;-58
2023/09/20 01:41:49;;;;;;;;;;;;;;;12.73;68.32;98927.75;109377;1285;22528;-58
2023/09/20 01:44:17;;;;;;;;;;;;;;;12.73;68.27;98921.98;109353;1285;86371;-58
2023/09/20 01:46:46;;;;;;;;;;;;;;;12.74;68.35;98927.66;109383;1285;22446;-58
2023/09/20 01:49:15;;;;;;;;;;;;;;;12.74;68.44;98923.65;109435;1286;22557;-58
2023/09/20 01:51:44;;;;;;;;;;;;;;;12.74;68.37;98924.70;109330;1285;87427;-58
2023/09/20 01:54:13;;;;;;;;;;;;;;;12.74;68.42;98929.61;109429;1285;23156;-58
2023/09/20 01:56:41;;;;;;;;;;;;;;;12.74;68.47;98926.61;109327;1285;86772;-58
2023/09/20 01:59:09;;;;;;;;;;;;;;;12.72;68.46;98926.73;109425;1285;22441;-58
2023/09/20 02:01:38;;;;;;;;;;;;;;;12.70;68.51;98922.05;109416;1284;22448;-58
2023/09/20 02:04:06;;;;;;;;;;;;;;;12.68;68.52;98926.16;109370;1273;85911;-59
2023/09/20 02:06:34;;;;;;;;;;;;;;;12.66;68.64;98929.98;109406;1285;22814;-58
2023/09/20 02:09:04;;;;;;;;;;;;;;;12.64;68.74;98933.45;109362;1285;85993;-58
2023/09/20 02:11:32;;;;;;;;;;;;;;;12.62;68.71;98934.65;109381;1285;22446;-58
2023/09/20 02:14:01;;;;;;;;;;;;;;;12.60;68.82;98934.95;109278;1286;86141;-58
2023/09/20 02:16:32;;;;;;;;;;;;;;;12.57;68.86;98937.77;109454;1285;23394;-58
2023/09/20 02:19:05;;;;;;;;;;;;;;;12.57;68.97;98941.77;109416;1286;23154;-58
2023/09/20 02:21:33;;;;;;;;;;;;;;;12.58;69.01;98941.75;109360;1285;86541;-58
2023/09/20 02:24:01;;;;;;;;;;;;;;;12.55;69.00;98945.80;109415;1285;22451;-58
2023/09/20 02:26:30;;;;;;;;;;;;;;;12.52;68.89;98952.28;109083;1288;87392;-58
2023/09/20 02:28:59;;;;;;;;;;;;;;;12.47;69.01;98953.95;109122;1286;22456;-58
2023/09/20 02:31:27;;;;;;;;;;;;;;;12.42;69.08;98951.17;109408;1285;22450;-58
2023/09/20 02:33:56;;;;;;;;;;;;;;;12.38;69.24;98954.60;109340;1285;85836;-58
2023/09/20 02:36:27;;;;;;;;;;;;;;;12.33;69.31;98952.81;109128;1284;22461;-58
2023/09/20 02:38:55;;;;;;;;;;;;;;;12.29;69.43;98952.17;109357;1285;86564;-58
2023/09/20 02:41:24;;;;;;;;;;;;;;;12.28;69.41;98952.80;109448;1276;22422;-58
2023/09/20 02:43:52;;;;;;;;;;;;;;;12.27;69.39;98957.05;109087;1285;85070;-58
2023/09/20 02:46:20;;;;;;;;;;;;;;;12.23;69.49;98965.00;109456;1285;22517;-58
2023/09/20 02:48:51;;;;;;;;;;;;;;;12.18;69.51;98959.20;109448;1285;22413;-58
2023/09/20 02:51:19;;;;;;;;;;;;;;;12.13;69.61;98953.11;109375;1285;86390;-58
2023/09/20 02:53:48;;;;;;;;;;;;;;;12.09;69.65;98956.00;109461;1285;22436;-58
2023/09/20 02:56:17;;;;;;;;;;;;;;;12.09;69.88;98954.77;109406;1285;86618;-58
2023/09/20 02:58:48;;;;;;;;;;;;;;;12.09;69.83;98951.29;109440;1286;22450;-58
2023/09/20 03:01:17;;;;;;;;;;;;;;;12.08;69.78;98950.09;109208;1287;22551;-58
2023/09/20 03:03:46;;;;;;;;;;;;;;;12.06;69.91;98950.92;109370;1286;86036;-58
2023/09/20 03:06:14;;;;;;;;;;;;;;;12.03;69.94;98953.59;109433;1285;22445;-58
2023/09/20 03:08:44;;;;;;;;;;;;;;;12.02;70.05;98956.30;109374;1285;87089;-59
2023/09/20 03:11:25;;;;;;;;;;;;;;;11.99;70.07;98961.55;109416;1285;22451;-58
2023/09/20 03:13:54;;;;;;;;;;;;;;;11.96;70.24;98956.15;109374;1285;86313;-58
2023/09/20 03:16:22;;;;;;;;;;;;;;;11.96;70.25;98958.25;109193;1275;22443;-58
2023/09/20 03:18:53;;;;;;;;;;;;;;;11.95;70.38;98957.75;109415;1286;23264;-59
2023/09/20 03:21:21;;;;;;;;;;;;;;;11.95;70.38;98958.87;109383;1285;86340;-58
2023/09/20 03:23:50;;;;;;;;;;;;;;;11.94;70.42;98954.02;109434;1285;22434;-58
2023/09/20 03:26:18;;;;;;;;;;;;;;;11.94;70.48;98954.91;109356;1286;85664;-59
2023/09/20 03:28:48;;;;;;;;;;;;;;;11.95;70.56;98957.10;109384;1285;22469;-58
2023/09/20 03:31:17;;;;;;;;;;;;;;;11.96;70.63;98951.64;109419;1285;22559;-58
2023/09/20 03:33:49;;;;;;;;;;;;;;;11.94;70.64;98952.79;109340;1282;85948;-58
2023/09/20 03:36:17;;;;;;;;;;;;;;;11.91;70.80;98950.20;109409;1285;22432;-58
2023/09/20 03:38:46;;;;;;;;;;;;;;;11.90;70.85;98946.06;109368;1286;86422;-58
2023/09/20 03:41:14;;;;;;;;;;;;;;;11.90;70.92;98946.94;109408;1286;22641;-59
2023/09/20 03:43:45;;;;;;;;;;;;;;;11.90;70.93;98944.02;109404;1285;22426;-59
2023/09/20 03:46:14;;;;;;;;;;;;;;;11.89;71.05;98939.18;109329;1285;86121;-59
2023/09/20 03:48:43;;;;;;;;;;;;;;;11.91;71.13;98933.30;109385;1285;22443;-58
2023/09/20 03:51:13;;;;;;;;;;;;;;;11.92;71.17;98939.29;109193;1286;85891;-58
2023/09/20 03:53:44;;;;;;;;;;;;;;;11.94;71.18;98932.40;109406;1286;23178;-58
2023/09/20 03:56:13;;;;;;;;;;;;;;;11.97;71.27;98931.88;109325;1285;85556;-58
2023/09/20 03:58:42;;;;;;;;;;;;;;;11.96;71.29;98932.60;109418;1285;22434;-58
2023/09/20 04:01:11;;;;;;;;;;;;;;;11.95;71.28;98932.19;109441;1285;22492;-58
2023/09/20 04:03:41;;;;;;;;;;;;;;;11.97;71.49;98935.00;109395;1285;86428;-58
2023/09/20 04:06:10;;;;;;;;;;;;;;;12.00;71.58;98933.04;109139;1287;22427;-58
2023/09/20 04:08:39;;;;;;;;;;;;;;;12.03;71.61;98932.83;109309;1285;86697;-58
2023/09/20 04:11:08;;;;;;;;;;;;;;;12.07;71.64;98936.71;109383;1285;22449;-58
2023/09/20 04:13:36;;;;;;;;;;;;;;;12.10;71.60;98937.09;109452;1282;22471;-58
2023/09/20 04:16:04;;;;;;;;;;;;;;;12.12;71.60;98940.27;109337;1285;86626;-57
2023/09/20 04:18:33;;;;;;;;;;;;;;;12.13;71.66;98942.63;109424;1285;23562;-58
2023/09/20 04:21:01;;;;;;;;;;;;;;;12.14;71.68;98942.19;109331;1285;85820;-58
2023/09/20 04:23:32;;;;;;;;;;;;;;;12.16;71.67;98947.12;109421;1286;23164;-58
2023/09/20 04:26:00;;;;;;;;;;;;;;;12.19;71.74;98954.80;109299;1285;88356;-58
2023/09/20 04:28:29;;;;;;;;;;;;;;;12.21;71.84;98958.13;109428;1285;23243;-59
2023/09/20 04:30:58;;;;;;;;;;;;;;;12.23;71.94;98960.14;109108;1288;23157;-57
2023/09/20 04:33:26;;;;;;;;;;;;;;;12.25;71.90;98958.56;109350;1286;86576;-57
2023/09/20 04:35:57;;;;;;;;;;;;;;;12.28;71.86;98957.17;109424;1286;22423;-57
2023/09/20 04:38:25;;;;;;;;;;;;;;;12.32;71.81;98956.05;109338;1285;86618;-57
2023/09/20 04:40:56;;;;;;;;;;;;;;;12.35;71.81;98955.67;109389;1285;22403;-57
2023/09/20 04:43:25;;;;;;;;;;;;;;;12.38;71.88;98955.27;109404;1285;23196;-57
2023/09/20 04:45:55;;;;;;;;;;;;;;;12.43;71.97;98952.88;109368;1285;87030;-58
2023/09/20 04:48:23;;;;;;;;;;;;;;;12.50;71.97;98956.91;109416;1285;22427;-57
2023/09/20 04:50:55;;;;;;;;;;;;;;;12.57;71.98;98961.33;109236;1286;85004;-57
2023/09/20 04:53:23;;;;;;;;;;;;;;;12.62;72.14;98958.87;109294;1286;22458;-58
2023/09/20 04:55:52;;;;;;;;;;;;;;;12.69;72.25;98958.23;109358;1285;86436;-58
2023/09/20 04:58:20;;;;;;;;;;;;;;;12.79;72.26;98961.63;109430;1286;22435;-58
2023/09/20 05:00:48;;;;;;;;;;;;;;;12.89;72.33;98966.35;109415;1285;23160;-58
2023/09/20 05:03:17;;;;;;;;;;;;;;;13.00;72.34;98969.79;109063;1286;87678;-58
2023/09/20 05:05:50;;;;;;;;;;;;;;;13.09;72.41;98962.67;109418;1285;22647;-58
2023/09/20 05:08:20;;;;;;;;;;;;;;;13.21;72.33;98967.80;109339;1285;88349;-58
2023/09/20 05:10:49;;;;;;;;;;;;;;;13.29;72.41;98967.60;109417;1287;22448;-58
2023/09/20 05:13:17;;;;;;;;;;;;;;;13.46;72.57;98963.73;109286;1286;22432;-57
2023/09/20 05:15:45;;;;;;;;;;;;;;;13.68;72.50;98961.52;109385;1285;86201;-57
2023/09/20 05:18:14;;;;;;;;;;;;;;;13.80;72.26;98963.73;109398;1286;22458;-59
2023/09/20 05:20:46;;;;;;;;;;;;;;;13.92;72.38;98964.27;109330;1285;85921;-57
2023/09/20 05:23:14;;;;;;;;;;;;;;;14.04;72.36;98965.35;109190;1287;22410;-63
2023/09/20 05:25:43;;;;;;;;;;;;;;;14.15;72.29;98965.05;109424;1285;23212;-60
2023/09/20 05:28:14;;;;;;;;;;;;;;;14.28;72.27;98970.08;109297;1285;86229;-59
2023/09/20 05:30:47;;;;;;;;;;;;;;;14.35;72.06;98969.23;109398;1286;22458;-59
2023/09/20 05:33:17;;;;;;;;;;;;;;;14.38;71.97;98973.36;109327;1286;86474;-58
2023/09/20 05:35:47;;;;;;;;;;;;;;;14.39;71.92;98966.94;109414;1286;22448;-59
2023/09/20 05:38:18;;;;;;;;;;;;;;;14.41;71.80;98966.64;109296;1286;86097;-59
2023/09/20 05:40:47;;;;;;;;;;;;;;;14.43;71.81;98971.53;109442;1286;22408;-59
2023/09/20 05:43:19;;;;;;;;;;;;;;;14.43;71.77;98973.10;109418;1285;22467;-58
2023/09/20 05:45:47;;;;;;;;;;;;;;;14.47;71.81;98976.50;109345;1285;85959;-59
2023/09/20 05:48:16;;;;;;;;;;;;;;;14.55;71.78;98975.37;109441;1285;22451;-59
2023/09/20 05:50:46;;;;;;;;;;;;;;;14.65;71.80;98973.81;109313;1276;87583;-62
2023/09/20 05:53:17;;;;;;;;;;;;;;;14.73;71.62;98971.60;109227;1286;22444;-59
2023/09/20 05:55:46;;;;;;;;;;;;;;;14.77;71.52;98974.08;109095;1288;22524;-54
2023/09/20 05:58:15;;;;;;;;;;;;;;;14.78;71.45;98976.98;109043;1286;86473;-59
2023/09/20 06:00:44;;;;;;;;;;;;;;;14.87;71.66;98979.45;109358;1286;24262;-61
2023/09/20 06:03:12;;;;;;;;;;;;;;;15.01;71.53;98978.73;109263;1286;85497;-59
2023/09/20 06:05:42;;;;;;;;;;;;;;;15.18;71.58;98980.22;109140;1285;249912;-55
2023/09/20 06:08:14;;;;;;;;;;;;;;;15.27;71.42;98977.09;109063;1286;85307;-58
2023/09/20 06:10:44;;;;;;;;;;;;;;;15.35;71.31;98975.59;109350;1286;22462;-62
2023/09/20 06:13:12;;;;;;;;;;;;;;;15.45;71.34;98975.81;109328;1286;22480;-61
2023/09/20 06:15:43;;;;;;;;;;;;;;;15.63;71.42;98980.73;109283;1286;87322;-60
2023/09/20 06:18:14;;;;;;;;;;;;;;;15.80;71.48;98978.68;109353;1285;23163;-60
2023/09/20 06:20:50;;;;;;;;;;;;;;;16.02;71.29;98980.75;109265;1286;86426;-62
2023/09/20 06:23:19;;;;;;;;;;;;;;;16.27;71.16;98982.54;109354;1285;22598;-59
2023/09/20 06:25:47;;;;;;;;;;;;;;;16.45;70.92;98988.81;109429;1285;22418;-58
2023/09/20 06:28:16;;;;;;;;;;;;;;;16.56;70.68;98983.70;109113;1285;23509;-60
2023/09/20 06:30:44;;;;;;;;;;;;;;;16.64;70.49;98991.22;109370;1285;22559;-66
2023/09/20 06:33:13;;;;;;;;;;;;;;;16.79;70.50;98993.16;109305;1286;85106;-59
2023/09/20 06:35:45;;;;;;;;;;;;;;;16.90;70.24;98993.48;109426;1286;22439;-53
2023/09/20 06:38:13;;;;;;;;;;;;;;;16.94;69.89;98994.34;109351;1279;86987;-52
2023/09/20 06:40:50;;;;;;;;;;;;;;;17.03;69.92;98994.81;109430;1285;22412;-59
2023/09/20 06:43:18;;;;;;;;;;;;;;;17.15;69.73;98999.91;109404;1282;22427;-57
2023/09/20 06:45:51;;;;;;;;;;;;;;;17.27;69.58;98999.06;109333;1285;85958;-56
2023/09/20 06:48:24;;;;;;;;;;;;;;;17.35;69.20;99001.77;109406;1286;22480;-56
2023/09/20 06:50:57;;;;;;;;;;;;;;;17.41;69.06;99003.65;109004;1286;87252;-57
2023/09/20 06:53:26;;;;;;;;;;;;;;;17.48;68.94;99008.14;109269;1286;23226;-56
2023/09/20 06:55:54;;;;;;;;;;;;;;;17.59;68.78;99008.63;109159;1286;85486;-56
2023/09/20 06:58:24;;;;;;;;;;;;;;;17.62;68.48;99013.79;109268;1286;22558;-56
2023/09/20 07:00:53;;;;;;;;;;;;;;;17.62;68.29;99015.54;109214;1286;23397;-56
2023/09/20 07:03:22;;;;;;;;;;;;;;;17.62;68.02;99016.65;109222;1287;86584;-55
2023/09/20 07:05:51;;;;;;;;;;;;;;;17.61;67.86;99017.42;109292;1283;22406;-54
2023/09/20 07:08:21;;;;;;;;;;;;;;;17.60;67.67;99017.33;109180;1285;86398;-56
2023/09/20 07:10:51;;;;;;;;;;;;;;;17.61;67.63;99015.13;109300;1286;22448;-56
2023/09/20 07:13:19;;;;;;;;;;;;;;;17.69;67.43;99016.22;109264;1285;22445;-56
2023/09/20 07:15:48;;;;;;;;;;;;;;;17.72;67.22;99018.94;109211;1285;87107;-55
2023/09/20 07:18:17;;;;;;;;;;;;;;;17.75;67.09;99022.77;109286;1286;22502;-56
2023/09/20 07:20:54;;;;;;;;;;;;;;;17.82;67.04;99023.36;108994;1292;85977;-57
2023/09/20 07:23:23;;;;;;;;;;;;;;;17.89;66.86;99029.41;109273;1286;22427;-55
2023/09/20 07:25:52;;;;;;;;;;;;;;;17.93;66.61;99029.25;109189;1286;86487;-54
2023/09/20 07:28:22;;;;;;;;;;;;;;;17.95;66.55;99033.45;109270;1286;22436;-54
2023/09/20 07:30:51;;;;;;;;;;;;;;;17.98;66.42;99036.20;109264;1287;23211;-55
2023/09/20 07:33:23;;;;;;;;;;;;;;;18.01;66.12;99039.80;108894;1289;86126;-55
2023/09/20 07:36:00;;;;;;;;;;;;;;;18.04;66.06;99038.42;109277;1286;22529;-56
2023/09/20 07:38:32;;;;;;;;;;;;;;;18.07;65.85;99045.80;109199;1286;85622;-61
2023/09/20 07:41:17;;;;;;;;;;;;;;;18.12;65.80;99048.34;109246;1286;22513;-58
2023/09/20 07:43:47;;;;;;;;;;;;;;;18.19;65.84;99049.35;109075;1289;22431;-57
2023/09/20 07:46:16;;;;;;;;;;;;;;;18.36;65.78;99048.69;109239;1285;86431;-57
2023/09/20 07:48:48;;;;;;;;;;;;;;;18.46;65.51;99055.83;109299;1285;22476;-58
2023/09/20 07:51:24;;;;;;;;;;;;;;;18.47;65.36;99053.41;109328;1286;85776;-57
2023/09/20 07:53:56;;;;;;;;;;;;;;;18.46;65.22;99051.61;109122;1287;22435;-56
2023/09/20 07:56:26;;;;;;;;;;;;;;;18.53;65.13;99055.93;109070;1286;86192;-55
2023/09/20 07:58:56;;;;;;;;;;;;;;;18.56;65.04;99060.20;109126;1289;23226;-58
2023/09/20 08:01:29;;;;;;;;;;;;;;;18.63;64.98;99063.02;109400;1285;22474;-58
2023/09/20 08:04:00;;;;;;;;;;;;;;;18.68;64.73;99060.37;109343;1289;85978;-58
2023/09/20 08:06:33;;;;;;;;;;;;;;;18.67;64.57;99063.52;109082;1282;22435;-58
2023/09/20 08:09:02;;;;;;;;;;;;;;;18.63;64.40;99063.29;109341;1284;85953;-58
2023/09/20 08:11:32;;;;;;;;;;;;;;;18.68;64.31;99066.56;109442;1285;22410;-56
2023/09/20 08:14:01;;;;;;;;;;;;;;;18.59;64.10;99069.01;109359;1286;86683;-56
2023/09/20 08:16:33;;;;;;;;;;;;;;;18.47;64.05;99067.78;109118;1288;23284;-56
2023/09/20 08:19:23;;;;;;;;;;;;;;;18.40;63.94;99065.78;109150;1289;23133;-57
2023/09/20 08:21:51;;;;;;;;;;;;;;;18.39;63.96;99067.23;109355;1286;86083;-57
2023/09/20 09:00:46;;;;;;;;;;;;;;;20.09;63.46;99064.96;109392;1286;22429;-66
2023/09/20 09:03:15;;;;;;;;;;;;;;;20.37;63.37;99065.39;109309;1285;87567;-63
2023/09/20 09:05:45;;;;;;;;;;;;;;;21.38;64.33;99065.04;109371;1286;23543;-68
2023/09/20 09:08:14;;;;;;;;;;;;;;;22.49;63.27;99067.25;109326;1285;86176;-63
2023/09/20 09:10:42;;;;;;;;;;;;;;;23.01;63.42;99066.10;109414;1286;22510;-59
2023/09/20 09:13:11;;;;;;;;;;;;;;;24.51;63.29;99063.55;109404;1286;22440;-58
2023/09/20 09:15:40;;;;;;;;;;;;;;;26.10;63.60;99060.65;109354;1285;86065;-55
2023/09/20 09:18:18;;;;;;;;;;;;;;;28.82;63.18;99051.63;109246;1286;22436;-55
2023/09/20 09:20:51;;;;;;;;;;;;;;;31.04;60.92;99058.77;109325;1285;85160;-53
2023/09/20 09:23:37;;;;;;;;;;;;;;;32.46;60.49;99055.71;109392;1285;22451;-59
2023/09/20 09:26:06;;;;;;;;;;;;;;;32.13;57.90;99062.59;109366;1282;86248;-60
2023/09/20 09:28:36;;;;;;;;;;;;;;;31.18;56.66;99063.72;109377;1286;22511;-60
2023/09/20 09:31:05;;;;;;;;;;;;;;;30.02;55.62;99062.10;109397;1286;22448;-60
2023/09/20 09:33:35;;;;;;;;;;;;;;;28.98;54.79;99062.48;109351;1286;88116;-60
2023/09/20 09:36:04;;;;;;;;;;;;;;;28.10;54.32;99064.36;109096;1288;22401;-60
2023/09/20 09:38:34;;;;;;;;;;;;;;;29.22;54.80;99061.16;109325;1286;87180;-60
2023/09/20 09:41:03;;;;;;;;;;;;;;;30.79;54.08;99060.20;109417;1286;22470;-61
2023/09/20 09:43:32;;;;;;;;;;;;;;;32.90;53.45;99059.14;109405;1285;23156;-59
2023/09/20 09:46:08;;;;;;;;;;;;;;;33.98;52.16;99055.55;109322;1286;88067;-60
2023/09/20 09:48:37;;;;;;;;;;;;;;;35.29;51.95;99055.34;109148;1287;22529;-60
2023/09/20 09:51:06;;;;;;;;;;;;;;;36.66;49.74;99054.19;109353;1285;86077;-58
2023/09/20 09:53:39;;;;;;;;;;;;;;;37.18;48.42;99062.18;109127;1287;22440;-56
2023/09/20 09:56:08;;;;;;;;;;;;;;;37.80;47.89;99058.41;109328;1286;86144;-56
2023/09/20 09:58:37;;;;;;;;;;;;;;;37.29;46.05;99059.98;109140;1286;23304;-55
2023/09/20 10:01:08;;;;;;;;;;;;;;;36.07;44.59;99058.70;109372;1286;23599;-55
2023/09/20 10:03:40;;;;;;;;;;;;;;;35.17;44.05;99061.70;109347;1286;88028;-54
2023/09/20 10:06:12;;;;;;;;;;;;;;;34.23;42.91;99058.91;109396;1286;23087;-52
2023/09/20 10:08:41;;;;;;;;;;;;;;;33.35;42.02;99061.05;109058;1286;86345;-55
2023/09/20 10:11:11;;;;;;;;;;;;;;;32.44;40.92;99060.83;109360;1279;22432;-55
2023/09/20 10:13:39;;;;;;;;;;;;;;;32.78;41.26;99059.58;109258;1286;23145;-60
2023/09/20 10:16:11;;;;;;;;;;;;;;;32.86;40.30;99061.41;109362;1285;85048;-57
2023/09/20 10:18:53;;;;;;;;;;;;;;;33.16;40.80;99063.73;109387;1286;22460;-57
2023/09/20 10:21:30;;;;;;;;;;;;;;;33.83;40.11;99057.52;109366;1285;87948;-56
2023/09/20 10:24:05;;;;;;;;;;;;;;;33.84;39.47;99055.49;109353;1285;22424;-56
2023/09/20 10:26:36;;;;;;;;;;;;;;;34.02;38.87;99053.91;109317;1285;85833;-56
2023/09/20 10:29:24;;;;;;;;;;;;;;;34.37;38.81;99050.66;109270;1289;22528;-55
2023/09/20 10:31:53;;;;;;;;;;;;;;;34.44;37.99;99047.98;109414;1285;22447;-55
2023/09/20 10:34:22;;;;;;;;;;;;;;;34.70;37.75;99055.77;109455;1273;22467;-55
2023/09/20 10:36:52;;;;;;;;;;;;;;;35.17;37.99;99053.67;109447;1285;22434;-55
2023/09/20 10:39:22;;;;;;;;;;;;;;;36.00;37.91;99052.98;109336;1285;86787;-55
2023/09/20 10:41:52;;;;;;;;;;;;;;;36.37;36.81;99053.04;109394;1286;22465;-55
2023/09/20 10:44:27;;;;;;;;;;;;;;;36.05;36.34;99046.80;109052;1285;86298;-55
2023/09/20 10:47:03;;;;;;;;;;;;;;;36.61;36.52;99049.24;109425;1285;22416;-55
2023/09/20 10:49:47;;;;;;;;;;;;;;;37.91;36.18;99045.52;109405;1286;22562;-56
2023/09/20 10:52:45;;;;;;;;;;;;;;;39.49;35.48;99051.66;109302;1286;85280;-57
2023/09/20 10:55:22;;;;;;;;;;;;;;;41.04;34.58;99052.29;109190;1285;22470;-57
2023/09/20 10:57:53;;;;;;;;;;;;;;;42.25;34.04;99049.73;109316;1286;85825;-57
2023/09/20 11:00:30;;;;;;;;;;;;;;;43.45;33.38;99048.76;109144;1286;22441;-57
2023/09/20 11:03:03;;;;;;;;;;;;;;;43.43;31.53;99045.16;109353;1286;86638;-58
2023/09/20 11:05:32;;;;;;;;;;;;;;;42.70;30.71;99046.02;109396;1285;22424;-55
2023/09/20 11:08:06;;;;;;;;;;;;;;;40.58;29.30;99045.50;109351;1285;85215;-56
2023/09/20 11:10:35;;;;;;;;;;;;;;;38.90;29.32;99046.25;109254;1289;22452;-56
2023/09/20 11:13:06;;;;;;;;;;;;;;;37.82;28.87;99045.73;109117;1288;22523;-56
2023/09/20 11:15:41;;;;;;;;;;;;;;;36.15;28.44;99046.52;109049;1286;86183;-55
2023/09/20 11:18:14;;;;;;;;;;;;;;;35.26;28.94;99047.91;109405;1285;22422;-54
2023/09/20 11:20:43;;;;;;;;;;;;;;;34.97;28.68;99050.01;109329;1285;86080;-54
2023/09/20 11:23:12;;;;;;;;;;;;;;;34.95;28.97;99053.57;109136;1286;22483;-56
2023/09/20 11:25:41;;;;;;;;;;;;;;;35.39;29.19;99047.11;109430;1280;22454;-56
2023/09/20 11:28:10;;;;;;;;;;;;;;;35.72;28.98;99039.84;109212;1286;86301;-56
2023/09/20 11:30:40;;;;;;;;;;;;;;;36.06;29.03;99042.73;109152;1287;22524;-55
2023/09/20 11:33:24;;;;;;;;;;;;;;;36.04;28.76;99044.17;109305;1285;86688;-55
2023/09/20 11:35:52;;;;;;;;;;;;;;;35.72;28.74;99046.19;109388;1285;22434;-56
2023/09/20 11:38:21;;;;;;;;;;;;;;;35.97;28.95;99046.92;109308;1286;86294;-56
2023/09/20 11:40:50;;;;;;;;;;;;;;;37.23;29.46;99044.77;109122;1286;22455;-56
2023/09/20 11:43:22;;;;;;;;;;;;;;;39.05;29.37;99048.83;109403;1285;22483;-57
2023/09/20 11:45:53;;;;;;;;;;;;;;;40.81;28.76;99038.87;109340;1281;86061;-58
2023/09/20 11:48:29;;;;;;;;;;;;;;;41.66;28.17;99030.69;109187;1282;23038;-57
2023/09/20 11:50:58;;;;;;;;;;;;;;;42.46;27.84;99028.79;109252;1285;86703;-57
2023/09/20 11:53:29;;;;;;;;;;;;;;;42.86;27.46;99026.65;109375;1285;22464;-58
2023/09/20 11:56:03;;;;;;;;;;;;;;;42.75;26.43;99026.33;109074;1286;86164;-58
2023/09/20 11:58:34;;;;;;;;;;;;;;;42.11;25.63;99021.47;109098;1286;23196;-57
2023/09/20 12:01:08;;;;;;;;;;;;;;;41.11;25.44;99029.56;109174;1286;22422;-58
2023/09/20 12:03:37;;;;;;;;;;;;;;;40.62;25.42;99032.73;109313;1285;86058;-57
2023/09/20 12:06:13;;;;;;;;;;;;;;;41.23;25.38;99032.50;109245;1286;22403;-58
2023/09/20 12:08:41;;;;;;;;;;;;;;;41.69;24.78;99030.45;109329;1286;86244;-58
2023/09/20 12:11:16;;;;;;;;;;;;;;;41.36;24.21;99029.84;109379;1285;22433;-57
2023/09/20 12:13:49;;;;;;;;;;;;;;;41.23;23.95;99028.30;108974;1287;22476;-57
2023/09/20 12:16:18;;;;;;;;;;;;;;;41.05;23.69;99032.02;109083;1286;86484;-56
2023/09/20 12:18:47;;;;;;;;;;;;;;;39.51;23.51;99032.86;109336;1285;22437;-56
2023/09/20 12:21:15;;;;;;;;;;;;;;;38.48;23.91;99033.45;109171;1286;87510;-57
2023/09/20 12:23:44;;;;;;;;;;;;;;;38.60;23.94;99030.23;109108;1286;23113;-56
2023/09/20 12:26:13;;;;;;;;;;;;;;;37.90;23.72;99028.80;109323;1286;87245;-57
2023/09/20 12:28:41;;;;;;;;;;;;;;;35.80;23.91;99035.54;109000;1286;23241;-56
2023/09/20 12:31:10;;;;;;;;;;;;;;;34.04;23.97;99034.80;109125;1286;22442;-56
2023/09/20 12:33:38;;;;;;;;;;;;;;;32.50;24.64;99035.21;109310;1285;85300;-56
2023/09/20 12:36:11;;;;;;;;;;;;;;;31.19;25.49;99041.67;109353;1285;22497;-56
2023/09/20 12:38:39;;;;;;;;;;;;;;;30.36;25.89;99045.18;109306;1285;87182;-56
2023/09/20 12:41:09;;;;;;;;;;;;;;;29.56;26.51;99038.67;109391;1285;22414;-56
2023/09/20 12:43:37;;;;;;;;;;;;;;;28.84;27.18;99050.76;109244;1285;23106;-58
2023/09/20 12:46:07;;;;;;;;;;;;;;;28.22;27.69;99050.23;109279;1285;86545;-58
2023/09/20 12:48:36;;;;;;;;;;;;;;;27.46;28.26;99052.75;109067;1287;22456;-58
2023/09/20 12:51:05;;;;;;;;;;;;;;;26.91;28.99;99053.35;109217;1285;87286;-56
2023/09/20 12:53:34;;;;;;;;;;;;;;;26.63;29.47;99056.13;109277;1285;22439;-56
2023/09/20 12:56:07;;;;;;;;;;;;;;;26.37;29.88;99057.41;109224;1285;87523;-56
2023/09/20 12:58:36;;;;;;;;;;;;;;;25.89;30.50;99057.73;109164;1281;22443;-56
2023/09/20 13:01:06;;;;;;;;;;;;;;;25.45;30.98;99058.86;109237;1286;23189;-57
2023/09/20 13:03:35;;;;;;;;;;;;;;;25.06;31.74;99057.66;109142;1286;85343;-57
2023/09/20 13:06:04;;;;;;;;;;;;;;;24.71;32.13;99058.11;109144;1286;23370;-56
2023/09/20 13:08:33;;;;;;;;;;;;;;;24.30;32.61;99065.48;108988;1288;85317;-56
2023/09/20 13:11:05;;;;;;;;;;;;;;;23.90;32.83;99066.71;109090;1286;22516;-57
2023/09/20 13:13:34;;;;;;;;;;;;;;;23.46;33.41;99066.73;109348;1285;23923;-55
2023/09/20 13:16:03;;;;;;;;;;;;;;;23.21;34.14;99061.96;109296;1285;85970;-55
2023/09/20 13:18:31;;;;;;;;;;;;;;;22.98;34.68;99073.67;109379;1286;22455;-56
2023/09/20 13:21:00;;;;;;;;;;;;;;;22.81;35.51;99071.80;109060;1286;86206;-57
2023/09/20 13:23:29;;;;;;;;;;;;;;;22.86;35.69;99066.95;109399;1285;22452;-57
2023/09/20 13:26:03;;;;;;;;;;;;;;;22.86;36.20;99065.71;109010;1286;86205;-59
2023/09/20 13:28:32;;;;;;;;;;;;;;;22.80;36.42;99070.64;109175;1286;23654;-57